Time;durP1;ratioP1;P1;durP2;ratioP2;P2;SDS_P1;SDS_P2;PMS_P1;PMS_P2;Temp;Humidity;BMP_temperature;BMP_pressure;BME280_temperature;BME280_humidity;BME280_pressure;Samples;Min_cycle;Max_cycle;Signal;HPM_P1;HPM_P2
2023/02/27 00:00:54;;;;;;;4.65;1.63;;;;;;;0.64;100.00;103099.41;5051451;28;20477;-74
2023/02/27 00:03:19;;;;;;;6.65;2.13;;;;;;;0.63;100.00;103097.69;5051679;28;20053;-74
2023/02/27 00:05:45;;;;;;;7.70;2.05;;;;;;;0.62;100.00;103093.34;5051685;28;20497;-75
2023/02/27 00:08:10;;;;;;;9.65;1.60;;;;;;;0.59;100.00;103091.63;5051935;28;20457;-75
2023/02/27 00:10:37;;;;;;;7.47;1.80;;;;;;;0.55;100.00;103097.78;5052080;28;20418;-74
2023/02/27 00:13:02;;;;;;;6.72;1.67;;;;;;;0.50;100.00;103099.59;5051104;28;20044;-75
2023/02/27 00:15:30;;;;;;;8.93;2.13;;;;;;;0.47;100.00;103102.25;5051856;28;20458;-75
2023/02/27 00:17:55;;;;;;;4.38;1.80;;;;;;;0.44;100.00;103102.28;5051591;28;20032;-75
2023/02/27 00:20:21;;;;;;;10.88;2.30;;;;;;;0.42;100.00;103104.03;5051828;28;20025;-75
2023/02/27 00:22:46;;;;;;;6.85;2.08;;;;;;;0.34;100.00;103094.53;5051817;28;20036;-74
2023/02/27 00:25:12;;;;;;;3.90;1.70;;;;;;;0.26;100.00;103103.38;5051607;28;20454;-75
2023/02/27 00:27:38;;;;;;;6.78;1.70;;;;;;;0.10;100.00;103095.66;5052968;28;20119;-74
2023/02/27 00:30:06;;;;;;;5.05;1.70;;;;;;;-0.09;100.00;103089.75;5055156;28;20460;-74
2023/02/27 00:32:32;;;;;;;10.38;1.75;;;;;;;-0.29;100.00;103095.16;5055326;28;20104;-74
2023/02/27 00:34:57;;;;;;;8.18;1.80;;;;;;;-0.47;100.00;103090.09;5054880;28;20415;-75
2023/02/27 00:37:22;;;;;;;10.20;1.85;;;;;;;-0.65;100.00;103083.28;5053977;28;20036;-73
2023/02/27 00:39:49;;;;;;;2.53;1.30;;;;;;;-0.83;100.00;103090.34;5055113;28;20047;-73
2023/02/27 00:42:14;;;;;;;3.22;1.38;;;;;;;-0.99;100.00;103089.56;5055270;28;20090;-73
2023/02/27 00:44:40;;;;;;;3.45;1.60;;;;;;;-1.13;100.00;103086.19;5037269;28;20116;-73
2023/02/27 00:47:06;;;;;;;6.03;1.67;;;;;;;-1.25;100.00;103087.97;5054666;28;20441;-73
2023/02/27 00:49:31;;;;;;;5.78;1.63;;;;;;;-1.32;100.00;103093.25;5055112;28;20039;-73
2023/02/27 00:51:57;;;;;;;6.22;1.40;;;;;;;-1.39;100.00;103087.16;5054841;28;20131;-74
2023/02/27 00:54:22;;;;;;;3.63;1.40;;;;;;;-1.42;100.00;103095.91;5054889;28;20035;-73
2023/02/27 00:56:48;;;;;;;2.88;1.27;;;;;;;-1.42;100.00;103089.81;5054987;28;20028;-73
2023/02/27 00:59:13;;;;;;;2.67;1.23;;;;;;;-1.43;100.00;103090.69;5054410;28;20365;-73
2023/02/27 01:01:38;;;;;;;3.80;1.35;;;;;;;-1.45;100.00;103092.44;5036852;28;20041;-73
2023/02/27 01:04:04;;;;;;;2.88;1.40;;;;;;;-1.50;100.00;103100.28;5054366;28;20037;-73
2023/02/27 01:06:29;;;;;;;1.40;0.90;;;;;;;-1.57;100.00;103095.09;5054860;28;20029;-73
2023/02/27 01:08:55;;;;;;;2.75;1.23;;;;;;;-1.65;100.00;103090.75;5054347;28;20029;-74
2023/02/27 01:11:21;;;;;;;3.13;1.20;;;;;;;-1.73;100.00;103091.66;5054827;28;20078;-73
2023/02/27 01:13:46;;;;;;;5.78;1.30;;;;;;;-1.80;100.00;103093.44;5054586;28;20039;-73
2023/02/27 01:16:12;;;;;;;2.35;1.10;;;;;;;-1.89;100.00;103086.47;5053934;28;20056;-74
2023/02/27 01:18:37;;;;;;;2.28;1.02;;;;;;;-1.97;100.00;103085.63;5054477;28;20370;-73
2023/02/27 01:21:03;;;;;;;3.88;1.30;;;;;;;-2.03;100.00;103088.25;5052889;28;20029;-73
2023/02/27 01:23:29;;;;;;;3.47;0.93;;;;;;;-2.09;100.00;103085.66;5053701;28;20025;-73
2023/02/27 01:25:54;;;;;;;3.42;1.20;;;;;;;-2.13;100.00;103084.78;5054471;28;20051;-73
2023/02/27 01:28:20;;;;;;;2.30;1.05;;;;;;;-2.16;100.00;103080.44;5054161;28;20035;-73
2023/02/27 01:30:46;;;;;;;2.45;1.00;;;;;;;-2.18;100.00;103083.91;5054404;28;20097;-73
2023/02/27 01:33:11;;;;;;;4.65;1.20;;;;;;;-2.18;100.00;103089.13;5053834;28;20112;-73
2023/02/27 01:35:36;;;;;;;2.90;1.13;;;;;;;-2.19;100.00;103083.06;5054225;28;20029;-73
2023/02/27 01:38:02;;;;;;;4.32;1.20;;;;;;;-2.16;100.00;103088.28;5053190;28;20477;-73
2023/02/27 01:40:27;;;;;;;5.10;1.20;;;;;;;-2.14;100.00;103089.13;5054149;28;20116;-73
2023/02/27 01:42:52;;;;;;;1.88;1.08;;;;;;;-2.12;100.00;103089.13;5054073;28;20450;-73
2023/02/27 01:45:25;;;;;;;5.30;1.27;;;;;;;-2.09;100.00;103088.25;5053364;28;20064;-73
2023/02/27 01:47:55;;;;;;;1.48;1.10;;;;;;;-2.07;100.00;103083.94;5036144;28;20511;-73
2023/02/27 01:50:21;;;;;;;3.42;1.10;;;;;;;-2.06;100.00;103081.31;5053206;28;20132;-73
2023/02/27 01:52:53;;;;;;;5.00;1.42;;;;;;;-2.06;100.00;103083.03;5053921;28;20111;-73
2023/02/27 01:55:20;;;;;;;4.68;1.08;;;;;;;-2.08;100.00;103077.81;5053436;28;20326;-73
2023/02/27 01:57:48;;;;;;;6.95;1.70;;;;;;;-2.09;100.00;103080.44;5053708;28;20036;-72
2023/02/27 02:00:14;;;;;;;3.60;1.23;;;;;;;-2.14;100.00;103076.09;5035265;28;20048;-73
2023/02/27 02:02:46;;;;;;;4.82;1.33;;;;;;;-2.16;100.00;103082.19;5053598;28;20102;-72
2023/02/27 02:05:13;;;;;;;4.70;1.50;;;;;;;-2.21;100.00;103078.72;5051990;28;20068;-73
2023/02/27 02:07:40;;;;;;;5.63;1.20;;;;;;;-2.24;100.00;103082.22;5035573;28;20028;-72
2023/02/27 02:10:06;;;;;;;5.38;1.63;;;;;;;-2.26;100.00;103081.31;5053079;28;20025;-73
2023/02/27 02:12:34;;;;;;;3.40;1.35;;;;;;;-2.28;100.00;103075.25;5053007;28;20480;-72
2023/02/27 02:15:00;;;;;;;1.13;0.90;;;;;;;-2.28;100.00;103082.19;5053481;28;20017;-72
2023/02/27 02:17:46;;;;;;;3.30;1.30;;;;;;;-2.32;100.00;103089.16;5052683;28;20358;-73
2023/02/27 02:20:36;;;;;;;1.58;1.05;;;;;;;-2.38;100.00;103087.41;5052921;28;20017;-73
2023/02/27 02:23:39;;;;;;;2.40;1.15;;;;;;;-2.45;100.00;103084.81;5052923;28;20291;-73
2023/02/27 02:26:21;;;;;;;4.50;1.00;;;;;;;-2.54;100.00;103080.47;5052720;28;20013;-73
2023/02/27 02:29:05;;;;;;;2.50;1.00;;;;;;;-2.64;100.00;103086.53;5053007;28;20040;-72
2023/02/27 02:31:53;;;;;;;3.60;1.02;;;;;;;-2.67;100.00;103082.22;5052650;28;20107;-73
2023/02/27 02:34:46;;;;;;;4.57;1.50;;;;;;;-2.71;100.00;103085.69;5052438;28;20020;-73
2023/02/27 02:37:32;;;;;;;2.30;1.35;;;;;;;-2.79;100.00;103090.00;5052585;28;20103;-73
2023/02/27 02:40:19;;;;;;;4.10;1.10;;;;;;;-2.88;100.00;103072.59;5053089;28;20104;-73
2023/02/27 02:43:03;;;;;;;2.47;1.35;;;;;;;-2.98;100.00;103073.47;5053245;28;20052;-72
2023/02/27 02:45:37;;;;;;;4.18;1.30;;;;;;;-3.06;100.00;103084.75;5052728;28;20103;-73
2023/02/27 02:48:15;;;;;;;2.55;1.40;;;;;;;-3.14;100.00;103080.38;5052622;28;20516;-74
2023/02/27 02:50:48;;;;;;;3.13;1.20;;;;;;;-3.21;100.00;103087.28;5052407;28;20087;-74
2023/02/27 02:53:17;;;;;;;6.95;1.50;;;;;;;-3.28;100.00;103091.63;5051907;28;20029;-74
2023/02/27 02:55:57;;;;;;;4.15;1.40;;;;;;;-3.36;100.00;103098.53;5053155;28;20107;-74
2023/02/27 02:58:32;;;;;;;5.05;1.45;;;;;;;-3.43;100.00;103092.44;5052025;28;20025;-72
2023/02/27 03:01:04;;;;;;;2.15;1.52;;;;;;;-3.49;100.00;103086.31;5052453;28;20031;-73
2023/02/27 03:03:33;;;;;;;7.80;1.67;;;;;;;-3.56;100.00;103090.66;5051960;28;20427;-72
2023/02/27 03:06:12;;;;;;;4.40;1.40;;;;;;;-3.63;100.00;103091.47;5052559;28;20025;-72
2023/02/27 03:08:47;;;;;;;2.45;1.30;;;;;;;-3.69;100.00;103089.69;5053022;28;20102;-72
2023/02/27 03:11:13;;;;;;;4.82;1.30;;;;;;;-3.71;100.00;103096.66;5052181;28;20480;-72
2023/02/27 03:14:07;;;;;;;3.30;1.33;;;;;;;-3.77;100.00;103094.88;5052382;28;20029;-72
2023/02/27 03:16:36;;;;;;;2.75;1.15;;;;;;;-3.81;100.00;103092.25;5033930;28;20116;-72
2023/02/27 03:19:09;;;;;;;4.25;1.40;;;;;;;-3.84;100.00;103089.63;5052307;28;20044;-72
2023/02/27 03:21:49;;;;;;;3.28;1.58;;;;;;;-3.88;100.00;103095.66;5052520;28;20020;-72
2023/02/27 03:24:22;;;;;;;5.93;1.52;;;;;;;-3.90;100.00;103098.25;5051686;28;20033;-72
2023/02/27 03:26:50;;;;;;;2.92;1.52;;;;;;;-3.91;100.00;103101.75;5052480;28;20406;-72
2023/02/27 03:29:32;;;;;;;8.88;1.70;;;;;;;-3.87;100.00;103103.47;5051875;28;20016;-72
2023/02/27 03:32:07;;;;;;;5.38;1.50;;;;;;;-3.87;100.00;103097.41;5052048;28;20028;-72
2023/02/27 03:34:35;;;;;;;4.65;2.08;;;;;;;-3.88;100.00;103101.75;5051918;28;20017;-71
2023/02/27 03:37:17;;;;;;;3.85;1.55;;;;;;;-3.93;100.00;103101.72;5051904;28;20104;-72
2023/02/27 03:39:49;;;;;;;3.42;1.67;;;;;;;-3.98;100.00;103100.81;5052425;28;20075;-72
2023/02/27 03:42:30;;;;;;;3.35;1.65;;;;;;;-4.02;100.00;103100.78;5051688;28;20067;-73
2023/02/27 03:45:08;;;;;;;3.38;1.50;;;;;;;-4.05;100.00;103099.03;5051080;28;20048;-72
2023/02/27 03:47:34;;;;;;;7.10;1.80;;;;;;;-4.08;100.00;103093.81;5051417;28;20457;-73
2023/02/27 03:49:59;;;;;;;4.93;1.77;;;;;;;-4.11;100.00;103097.25;5052254;28;20040;-72
2023/02/27 03:52:27;;;;;;;2.05;1.33;;;;;;;-4.14;100.00;103099.84;5051912;28;20029;-73
2023/02/27 03:55:00;;;;;;;4.75;2.03;;;;;;;-4.17;100.00;103096.34;5051762;28;20025;-72
2023/02/27 03:57:26;;;;;;;3.65;1.75;;;;;;;-4.21;100.00;103097.19;5051707;28;20029;-73
2023/02/27 03:59:52;;;;;;;6.53;2.33;;;;;;;-4.23;100.00;103088.53;5051992;28;20117;-73
2023/02/27 04:02:18;;;;;;;3.22;2.05;;;;;;;-4.25;100.00;103085.91;5052746;28;20502;-71
2023/02/27 04:04:43;;;;;;;4.32;1.98;;;;;;;-4.27;100.00;103091.09;5055586;28;20060;-72
2023/02/27 04:07:28;;;;;;;7.75;2.17;;;;;;;-4.28;100.00;103089.34;5054337;28;20029;-72
2023/02/27 04:10:24;;;;;;;4.93;2.03;;;;;;;-4.31;100.00;103086.72;5056084;28;20029;-72
2023/02/27 04:13:08;;;;;;;6.60;2.10;;;;;;;-4.33;100.00;103085.84;5055768;28;20079;-72
2023/02/27 04:16:02;;;;;;;6.45;2.40;;;;;;;-4.36;100.00;103090.16;5055069;28;20040;-72
2023/02/27 04:19:13;;;;;;;4.25;1.90;;;;;;;-4.36;100.00;103104.03;5055530;28;20033;-72
2023/02/27 04:22:09;;;;;;;2.17;1.75;;;;;;;-4.38;100.00;103103.13;5024074;28;20037;-72
2023/02/27 04:25:00;;;;;;;6.03;2.10;;;;;;;-4.41;100.00;103100.50;5055216;28;20020;-72
2023/02/27 04:27:35;;;;;;;4.53;1.83;;;;;;;-4.40;100.00;103106.56;5055085;28;20032;-72
2023/02/27 04:30:32;;;;;;;8.68;2.55;;;;;;;-4.43;100.00;103110.03;5055418;28;20467;-72
2023/02/27 04:33:09;;;;;;;6.00;2.30;;;;;;;-4.45;100.00;103114.31;5041607;28;20045;-72
2023/02/27 04:35:50;;;;;;;7.55;2.10;;;;;;;-4.46;100.00;103112.59;5055299;28;20480;-72
2023/02/27 04:38:22;;;;;;;3.15;1.90;;;;;;;-4.51;100.00;103111.69;5037418;28;20024;-72
2023/02/27 04:40:55;;;;;;;5.35;2.03;;;;;;;-4.53;100.00;103119.47;5055448;28;20070;-72
2023/02/27 04:43:23;;;;;;;9.27;2.38;;;;;;;-4.55;100.00;103122.88;5054878;28;20036;-72
2023/02/27 04:45:51;;;;;;;4.60;2.25;;;;;;;-4.57;100.00;103122.88;5055163;28;20527;-72
2023/02/27 04:48:24;;;;;;;8.40;2.20;;;;;;;-4.62;100.00;103115.03;5054823;28;20029;-72
2023/02/27 04:51:14;;;;;;;4.07;2.25;;;;;;;-4.64;100.00;103119.38;5055192;28;20160;-72
2023/02/27 04:53:52;;;;;;;4.82;2.38;;;;;;;-4.67;100.00;103123.66;5044803;28;20041;-72
2023/02/27 04:56:32;;;;;;;4.30;2.38;;;;;;;-4.70;100.00;103119.31;5054607;28;20468;-72
2023/02/27 04:59:07;;;;;;;4.60;2.10;;;;;;;-4.69;100.00;103130.56;5054800;28;20081;-72
2023/02/27 05:01:39;;;;;;;4.68;2.38;;;;;;;-4.70;100.00;103131.41;5054473;28;20032;-72
2023/02/27 05:04:09;;;;;;;6.68;2.33;;;;;;;-4.72;100.00;103131.41;5055351;28;20024;-72
2023/02/27 05:06:38;;;;;;;5.28;2.72;;;;;;;-4.73;100.00;103129.69;5054345;28;20017;-72
2023/02/27 05:09:20;;;;;;;6.65;2.88;;;;;;;-4.74;100.00;103135.72;5054457;28;20104;-72
2023/02/27 05:12:08;;;;;;;;;;;;;;;-4.74;100.00;103135.72;5054746;28;20033;-72
2023/02/27 05:14:48;;;;;;;8.05;2.85;;;;;;;-4.73;100.00;103145.25;5042783;28;20349;-73
2023/02/27 05:17:35;;;;;;;4.47;2.80;;;;;;;-4.73;100.00;103139.19;5054616;28;20507;-73
2023/02/27 05:20:04;;;;;;;8.82;2.60;;;;;;;-4.73;100.00;103139.19;5054194;28;20029;-73
2023/02/27 05:22:44;;;;;;;7.00;2.15;;;;;;;-4.75;100.00;103143.50;5053829;28;20469;-74
2023/02/27 05:25:17;;;;;;;7.70;2.50;;;;;;;-4.75;100.00;103136.56;5053150;28;20021;-74
2023/02/27 05:27:59;;;;;;;4.00;2.50;;;;;;;-4.78;100.00;103134.84;5054094;28;20025;-73
2023/02/27 05:30:41;;;;;;;4.45;2.35;;;;;;;-4.76;100.00;103140.03;5053971;28;20429;-75
2023/02/27 05:33:18;;;;;;;;;;;;;;;-4.76;100.00;103136.56;5054623;28;20094;-71
2023/02/27 05:35:55;;;;;;;4.32;2.42;;;;;;;-4.74;100.00;103140.91;5053568;28;19909;-75
2023/02/27 05:38:30;;;;;;;5.40;2.67;;;;;;;-4.72;100.00;103133.13;5036304;28;20025;-74
2023/02/27 05:41:01;;;;;;;7.63;2.92;;;;;;;-4.69;100.00;103141.81;5054356;28;20021;-73
2023/02/27 05:43:33;;;;;;;4.15;2.33;;;;;;;-4.67;100.00;103137.53;5053661;28;20458;-75
2023/02/27 05:46:07;;;;;;;5.82;2.30;;;;;;;-4.67;100.00;103134.94;5036545;28;20047;-74
2023/02/27 05:48:41;;;;;;;9.00;3.00;;;;;;;-4.65;100.00;103140.13;5053756;28;20025;-72
2023/02/27 05:51:12;;;;;;;7.93;3.20;;;;;;;-4.68;100.00;103133.19;5052657;28;20377;-74
2023/02/27 05:53:42;;;;;;;9.35;3.38;;;;;;;-4.71;100.00;103145.28;5053688;28;20091;-74
2023/02/27 05:56:11;;;;;;;4.60;2.23;;;;;;;-4.75;100.00;103157.34;5054144;28;20060;-74
2023/02/27 05:58:53;;;;;;;9.63;2.80;;;;;;;-4.77;100.00;103153.88;5053662;28;20078;-74
2023/02/27 06:01:19;;;;;;;10.73;3.10;;;;;;;-4.74;100.00;103163.44;5054074;28;20020;-74
2023/02/27 06:03:44;;;;;;;4.65;2.42;;;;;;;-4.75;100.00;103157.34;5053618;28;20032;-74
2023/02/27 06:06:14;;;;;;;7.22;2.90;;;;;;;-4.76;100.00;103159.94;5052478;28;20035;-74
2023/02/27 06:08:40;;;;;;;4.00;2.33;;;;;;;-4.79;100.00;103156.47;5053496;28;20052;-75
2023/02/27 06:11:06;;;;;;;4.55;2.78;;;;;;;-4.81;100.00;103160.78;5035665;28;20059;-74
2023/02/27 06:13:31;;;;;;;9.05;2.72;;;;;;;-4.84;100.00;103160.72;5053198;28;20029;-74
2023/02/27 06:15:57;;;;;;;6.00;2.50;;;;;;;-4.87;100.00;103162.41;5053329;28;20035;-72
2023/02/27 06:18:22;;;;;;;7.00;2.30;;;;;;;-4.88;100.00;103161.56;5053455;28;20029;-72
2023/02/27 06:20:49;;;;;;;5.38;2.83;;;;;;;-4.84;100.00;103172.84;5035378;28;20404;-72
2023/02/27 06:23:14;;;;;;;5.63;2.33;;;;;;;-4.83;100.00;103172.00;5053889;28;20111;-72
2023/02/27 06:25:43;;;;;;;3.90;2.50;;;;;;;-4.83;100.00;103175.44;5052342;28;20445;-74
2023/02/27 06:28:09;;;;;;;8.75;3.85;;;;;;;-4.83;100.00;103174.59;5053558;28;20055;-73
2023/02/27 06:30:35;;;;;;;16.23;5.55;;;;;;;-4.85;100.00;103176.28;5052986;28;20086;-73
2023/02/27 06:33:01;;;;;;;11.05;6.47;;;;;;;-4.89;100.00;103177.97;5052933;28;20028;-74
2023/02/27 06:35:28;;;;;;;14.75;7.18;;;;;;;-4.88;100.00;103187.53;5053266;28;20028;-73
2023/02/27 06:37:54;;;;;;;12.93;7.97;;;;;;;-4.88;100.00;103182.34;5052708;28;20095;-73
2023/02/27 06:40:19;;;;;;;14.68;7.65;;;;;;;-4.86;100.00;103191.00;5053298;28;20036;-73
2023/02/27 06:42:44;;;;;;;13.40;7.15;;;;;;;-4.84;100.00;103194.47;5052718;28;20111;-73
2023/02/27 06:45:12;;;;;;;12.55;6.25;;;;;;;-4.82;100.00;103194.50;5052649;28;20069;-73
2023/02/27 06:47:38;;;;;;;9.48;5.40;;;;;;;-4.78;100.00;103197.19;5052413;28;20053;-73
2023/02/27 06:50:04;;;;;;;8.18;4.63;;;;;;;-4.69;100.00;103198.97;5052614;28;20556;-73
2023/02/27 06:52:31;;;;;;;9.43;3.67;;;;;;;-4.65;100.00;103205.94;5053088;28;20029;-73
2023/02/27 06:54:56;;;;;;;8.50;4.28;;;;;;;-4.63;100.00;103200.78;5052474;28;20044;-73
2023/02/27 06:57:22;;;;;;;5.78;3.78;;;;;;;-4.61;100.00;103202.53;5034914;28;20437;-72
2023/02/27 06:59:47;;;;;;;4.32;2.70;;;;;;;-4.57;100.00;103208.63;5052444;28;20033;-73
2023/02/27 07:02:14;;;;;;;8.00;3.03;;;;;;;-4.55;100.00;103213.84;5052423;28;20025;-73
2023/02/27 07:04:40;;;;;;;7.40;2.95;;;;;;;-4.55;100.00;103206.94;5052223;28;20025;-73
2023/02/27 07:07:06;;;;;;;4.13;2.85;;;;;;;-4.53;100.00;103214.75;5052514;28;20025;-73
2023/02/27 07:09:31;;;;;;;5.75;3.00;;;;;;;-4.51;100.00;103206.13;5052310;28;20029;-73
2023/02/27 07:11:57;;;;;;;6.22;2.70;;;;;;;-4.50;100.00;103218.25;5034401;28;20051;-74
2023/02/27 07:14:22;;;;;;;7.20;2.95;;;;;;;-4.46;100.00;103229.56;5053182;28;20095;-73
2023/02/27 07:16:49;;;;;;;5.47;3.03;;;;;;;-4.44;100.00;103222.63;5052175;28;20029;-73
2023/02/27 07:19:17;;;;;;;6.32;3.28;;;;;;;-4.39;100.00;103223.53;5052548;28;20044;-73
2023/02/27 07:21:43;;;;;;;7.15;3.72;;;;;;;-4.34;100.00;103221.88;5052215;28;20480;-73
2023/02/27 07:24:08;;;;;;;7.32;3.63;;;;;;;-4.27;100.00;103231.47;5052423;28;20029;-73
2023/02/27 07:26:34;;;;;;;8.98;3.60;;;;;;;-4.22;100.00;103226.31;5052488;28;20132;-73
2023/02/27 07:28:59;;;;;;;9.20;4.10;;;;;;;-4.15;100.00;103227.25;5051957;28;20453;-73
2023/02/27 07:31:25;;;;;;;7.20;3.60;;;;;;;-4.10;100.00;103235.97;5052527;28;20028;-73
2023/02/27 07:33:50;;;;;;;12.95;4.32;;;;;;;-4.05;100.00;103230.81;5051630;28;20025;-73
2023/02/27 07:36:16;;;;;;;8.93;3.72;;;;;;;-3.99;100.00;103238.66;5053773;28;20109;-73
2023/02/27 07:38:41;;;;;;;16.67;8.48;;;;;;;-3.93;100.00;103234.38;5040767;28;20032;-73
2023/02/27 07:41:06;;;;;;;27.35;12.35;;;;;;;-3.85;100.00;103233.56;5059059;28;20025;-73
2023/02/27 07:43:32;;;;;;;38.45;18.02;;;;;;;-3.77;100.00;103232.78;5057673;28;20369;-73
2023/02/27 07:45:58;;;;;;;34.80;15.88;;;;;;;-3.66;100.00;103240.66;5058829;28;20036;-73
2023/02/27 07:48:23;;;;;;;35.90;14.25;;;;;;;-3.51;100.00;103244.25;5058643;28;20398;-73
2023/02/27 07:50:49;;;;;;;26.13;12.52;;;;;;;-3.39;100.00;103245.19;5058530;28;20113;-73
2023/02/27 07:53:14;;;;;;;21.77;10.48;;;;;;;-3.29;100.00;103238.31;5058629;28;20041;-72
2023/02/27 07:55:39;;;;;;;10.35;4.80;;;;;;;-3.15;100.00;103241.00;5058608;28;20037;-74
2023/02/27 07:58:05;;;;;;;13.40;6.10;;;;;;;-2.97;100.00;103250.66;5057974;28;20036;-75
2023/02/27 08:00:30;;;;;;;8.10;4.85;;;;;;;-2.78;100.00;103248.97;5058826;28;20033;-71
2023/02/27 08:02:56;;;;;;;11.10;4.03;;;;;;;-2.61;100.00;103249.03;5040083;28;20036;-71
2023/02/27 08:05:21;;;;;;;9.95;3.92;;;;;;;-2.46;100.00;103249.94;5058747;28;20075;-72
2023/02/27 08:07:46;;;;;;;13.05;3.75;;;;;;;-2.28;100.00;103249.09;5058165;28;20377;-71
2023/02/27 08:10:12;;;;;;;15.13;4.13;;;;;;;-2.08;100.00;103242.19;5055361;28;20028;-73
2023/02/27 08:12:38;;;;;;;8.68;3.50;;;;;;;-1.81;100.00;103243.06;5055937;28;20037;-72
2023/02/27 08:15:04;;;;;;;10.90;3.47;;;;;;;-1.56;100.00;103248.28;5055552;28;20037;-73
2023/02/27 08:17:29;;;;;;;5.78;2.95;;;;;;;-1.34;100.00;103251.75;5056006;28;20065;-73
2023/02/27 08:19:55;;;;;;;5.82;2.65;;;;;;;-1.11;100.00;103244.69;5055528;28;20406;-72
2023/02/27 08:22:20;;;;;;;10.18;2.97;;;;;;;-0.89;100.00;103247.25;5055700;28;20074;-72
2023/02/27 08:24:45;;;;;;;10.35;2.88;;;;;;;-0.73;100.00;103250.66;5055730;28;20061;-75
2023/02/27 08:27:11;;;;;;;7.72;2.50;;;;;;;-0.54;100.00;103254.03;5055991;28;20033;-74
2023/02/27 08:29:36;;;;;;;5.35;2.85;;;;;;;-0.39;100.00;103247.84;5037788;28;20048;-73
2023/02/27 08:32:03;;;;;;;8.95;4.20;;;;;;;-0.21;100.00;103249.47;5054861;28;20037;-73
2023/02/27 08:34:29;;;;;;;6.13;3.38;;;;;;;0.01;100.00;103246.72;5055776;28;20182;-73
2023/02/27 08:36:54;;;;;;;7.63;2.60;;;;;;;0.19;100.00;103254.41;5055854;28;20483;-73
2023/02/27 08:39:22;;;;;;;5.00;2.15;;;;;;;0.40;100.00;103255.97;5038054;28;20052;-73
2023/02/27 08:41:50;;;;;;;10.50;2.55;;;;;;;0.59;100.00;103254.06;5056063;28;20067;-71
2023/02/27 08:44:16;;;;;;;6.75;2.38;;;;;;;0.82;100.00;103252.94;5055986;28;20077;-72
2023/02/27 08:46:42;;;;;;;11.05;2.17;;;;;;;0.99;100.00;103255.41;5055501;28;20029;-72
2023/02/27 08:49:07;;;;;;;7.55;2.10;;;;;;;1.21;100.00;103259.50;5051761;28;20419;-72
2023/02/27 08:51:32;;;;;;;7.88;2.25;;;;;;;1.49;100.00;103258.25;5052303;28;20052;-73
2023/02/27 08:53:58;;;;;;;7.03;1.48;;;;;;;1.76;100.00;103260.50;5050659;28;20556;-73
2023/02/27 08:56:25;;;;;;;8.65;1.70;;;;;;;2.19;100.00;103255.47;5050445;28;20477;-74
2023/02/27 08:58:51;;;;;;;5.25;1.60;;;;;;;2.64;100.00;103258.16;5051980;28;20025;-72
2023/02/27 09:01:17;;;;;;;7.30;1.80;;;;;;;3.09;100.00;103259.94;5052325;28;20796;-72
2023/02/27 09:03:42;;;;;;;4.63;1.70;;;;;;;3.45;100.00;103257.41;5034617;28;20057;-73
2023/02/27 09:06:08;;;;;;;11.10;2.28;;;;;;;3.97;100.00;103256.25;5051577;28;20083;-73
2023/02/27 09:08:33;;;;;;;6.93;1.67;;;;;;;5.00;100.00;103260.59;5051545;28;20059;-73
2023/02/27 09:10:59;;;;;;;5.00;1.65;;;;;;;6.42;100.00;103258.84;5056226;28;20453;-72
2023/02/27 09:13:25;;;;;;;10.93;1.73;;;;;;;7.97;92.58;103267.16;5058540;28;20082;-75
2023/02/27 09:15:51;;;;;;;4.97;1.48;;;;;;;9.11;65.91;103267.59;5067048;28;20092;-70
2023/02/27 09:18:17;;;;;;;3.60;1.60;;;;;;;10.05;60.78;103257.81;5062450;28;20029;-74
2023/02/27 09:20:42;;;;;;;3.85;1.30;;;;;;;10.70;55.40;103261.66;5053547;28;20090;-75
2023/02/27 09:23:08;;;;;;;9.98;2.72;;;;;;;11.63;52.29;103263.69;5053241;28;20040;-74
2023/02/27 09:25:34;;;;;;;6.30;1.05;;;;;;;12.60;48.05;103273.22;5053438;28;20404;-74
2023/02/27 09:27:59;;;;;;;4.28;1.50;;;;;;;12.82;46.85;103262.09;5053797;28;20037;-72
2023/02/27 09:30:24;;;;;;;4.97;1.23;;;;;;;13.00;46.50;103265.44;5053692;28;20410;-73
2023/02/27 09:32:50;;;;;;;7.95;1.60;;;;;;;13.08;44.99;103266.72;5053618;28;20087;-77
2023/02/27 09:35:19;;;;;;;4.05;1.30;;;;;;;12.84;44.33;103267.34;5051840;28;20033;-74
2023/02/27 09:37:44;;;;;;;6.47;1.63;;;;;;;12.79;45.27;103264.06;5053168;28;20448;-74
2023/02/27 09:40:23;;;;;;;5.03;1.60;;;;;;;13.21;45.36;103265.00;5035381;28;20059;-73
2023/02/27 09:42:49;;;;;;;3.47;1.10;;;;;;;13.08;44.11;103267.63;5053951;28;20037;-84
2023/02/27 09:45:28;;;;;;;6.95;1.42;;;;;;;13.14;44.10;103267.22;5053105;28;20102;-72
2023/02/27 09:48:02;;;;;;;6.13;1.38;;;;;;;13.28;45.12;103278.84;5052997;28;20433;-74
2023/02/27 09:50:39;;;;;;;7.93;1.67;;;;;;;13.45;45.01;103285.81;5053019;28;20518;-74
2023/02/27 09:53:11;;;;;;;6.22;1.85;;;;;;;13.26;45.40;103278.09;5052976;28;20021;-75
2023/02/27 09:55:40;;;;;;;7.05;1.55;;;;;;;13.23;45.17;103273.81;5053377;28;20029;-75
2023/02/27 09:58:24;;;;;;;4.50;1.77;;;;;;;13.67;44.05;103279.94;5052926;28;20025;-73
2023/02/27 10:01:18;;;;;;;9.02;2.00;;;;;;;14.02;44.96;103282.97;5053237;28;20017;-75
2023/02/27 10:04:01;;;;;;;7.22;2.00;;;;;;;13.77;44.32;103282.91;5052883;28;20021;-75
2023/02/27 10:06:36;;;;;;;5.00;1.67;;;;;;;13.57;44.54;103295.75;5053316;28;20132;-74
2023/02/27 10:09:11;;;;;;;6.47;1.73;;;;;;;13.60;45.28;103297.34;5052314;28;20029;-77
2023/02/27 10:11:48;;;;;;;4.50;1.70;;;;;;;12.84;45.16;103284.22;5054683;28;20029;-77
2023/02/27 10:14:17;;;;;;;11.25;1.83;;;;;;;11.06;48.91;103287.28;5055290;28;20445;-75
2023/02/27 10:16:46;;;;;;;8.13;1.50;;;;;;;9.09;54.85;103293.38;5054316;28;20029;-74
2023/02/27 10:19:24;;;;;;;7.03;2.15;;;;;;;7.69;63.09;103288.63;5054621;28;20033;-79
2023/02/27 10:21:54;;;;;;;8.20;2.00;;;;;;;6.69;83.31;103287.91;5056695;28;20392;-74
2023/02/27 10:24:41;;;;;;;8.90;2.35;;;;;;;5.93;96.07;103290.38;5052928;28;20087;-81
2023/02/27 10:27:14;;;;;;;8.57;2.20;;;;;;;5.82;100.00;103288.06;5052218;28;20032;-76
2023/02/27 10:29:40;;;;;;;10.18;2.28;;;;;;;5.80;100.00;103289.03;5052563;28;20024;-76
2023/02/27 10:32:22;;;;;;;7.90;2.15;;;;;;;6.32;100.00;103289.16;5051939;28;20473;-75
2023/02/27 10:34:57;;;;;;;4.90;2.05;;;;;;;7.39;85.59;103270.34;5051201;28;20029;-77
2023/02/27 10:37:25;;;;;;;11.10;1.95;;;;;;;7.94;80.17;103280.53;5051713;28;20031;-76
2023/02/27 10:39:58;;;;;;;7.95;1.85;;;;;;;7.83;75.08;103280.13;5052742;28;20056;-76
2023/02/27 10:42:29;;;;;;;4.30;1.48;;;;;;;8.61;70.78;103286.63;5051751;28;20495;-76
2023/02/27 10:44:55;;;;;;;3.60;1.40;;;;;;;8.54;64.40;103283.41;5051811;28;20082;-74
2023/02/27 10:47:24;;;;;;;4.53;1.52;;;;;;;7.89;70.41;103279.88;5051486;28;20045;-74
2023/02/27 10:49:50;;;;;;;7.55;1.52;;;;;;;7.32;76.23;103282.94;5052238;28;20109;-75
2023/02/27 10:52:17;;;;;;;12.30;2.03;;;;;;;6.71;83.67;103281.63;5051406;28;20053;-76
2023/02/27 10:54:44;;;;;;;3.63;1.48;;;;;;;6.29;82.05;103276.91;5034126;28;20036;-76
2023/02/27 10:57:26;;;;;;;6.13;1.45;;;;;;;7.28;73.59;103270.75;5051687;28;20048;-75
2023/02/27 10:59:54;;;;;;;10.18;1.48;;;;;;;7.30;65.97;103279.50;5052115;28;20029;-75
2023/02/27 11:02:24;;;;;;;10.65;1.50;;;;;;;6.69;66.91;103278.19;5052016;28;20033;-76
2023/02/27 11:04:55;;;;;;;5.45;2.00;;;;;;;5.91;74.37;103280.75;5052173;28;20504;-75
2023/02/27 11:07:34;;;;;;;7.07;1.27;;;;;;;5.38;81.33;103281.50;5051370;28;20051;-76
2023/02/27 11:10:00;;;;;;;3.10;1.40;;;;;;;5.05;89.62;103274.50;5052042;28;20036;-76
2023/02/27 11:12:28;;;;;;;7.15;1.70;;;;;;;4.87;89.25;103267.97;5050564;28;20029;-75
2023/02/27 11:14:56;;;;;;;3.05;1.27;;;;;;;5.06;96.12;103265.69;5051676;28;20025;-75
2023/02/27 11:17:26;;;;;;;5.45;1.50;;;;;;;6.44;79.60;103256.16;5051335;28;20029;-76
2023/02/27 11:19:51;;;;;;;9.05;1.50;;;;;;;7.26;66.27;103255.84;5051776;28;20052;-76
2023/02/27 11:22:23;;;;;;;2.47;1.20;;;;;;;6.95;65.20;103251.69;5051286;28;20029;-76
2023/02/27 11:24:49;;;;;;;3.28;1.08;;;;;;;6.66;67.58;103256.25;5051603;28;20025;-76
2023/02/27 11:27:29;;;;;;;1.15;1.05;;;;;;;6.71;67.75;103251.66;5051298;28;20327;-76
2023/02/27 11:30:03;;;;;;;4.22;1.30;;;;;;;6.74;65.85;103248.06;5051977;28;20029;-76
2023/02/27 11:32:52;;;;;;;4.95;1.25;;;;;;;6.95;64.52;103243.75;5051604;28;20091;-76
2023/02/27 11:35:21;;;;;;;3.30;0.95;;;;;;;6.98;62.08;103244.50;5051301;28;20061;-76